Macapá Alberto Alcolumbre

SBMQ · Amapá, 巴西

METAR SBMQ · Macapá Alberto Alcolumbre

25 四月 04:00 LT
10m
罗盘
风向 的 风向 010° Macapá Alberto Alcolumbre 8/26
风: 2 kt, 1 beaufort

1 kt

1 kt
改变
0 ft 2.000 4.000 6.000 8.000 10.000
Cloud Cloud
FEW 500
Cloud Cloud Cloud Cloud Cloud Cloud Cloud Cloud
OVC 10.000
METAR SBMQ 250700Z 01002KT 9999 -RA FEW005 OVC100 26/25 Q1010

METAR Macapá Alberto Alcolumbre - SBMQ

Macapá Alberto Alcolumbre是,巴西中的小机场。 该机场位于纬度0,05062和经度-51,07215。 该机场有一条跑道: 8/26. 本场的ICAO机场代码为SBMQ。 机场在Amazonica FIR中。

该航空气象观测是针对Macapá Alberto Alcolumbre在2024年4月25日 04:00, 当地时间进行的。

机场观察

风向为010°,速度为2 kt。

可见度为10 km 或者更多。

有几云在500 ft的高度 和 乌云密布在10.000 ft的高度。 破损或更高的上限为10.000 ft。

当前天气为光 雨。 温度和风寒是26 °C。 露点为25 °C,相对湿度为94%。 海平面上的气压为1010 hPa (QNH)。

白天

今天,太阳从06:18升起,在18:25降落。 这适用于Macapá Alberto Alcolumbre,世界夏令时可能有所不同。 当地时间与世界标准时间之间的时差为-3 小时。 夏令时目前正在进行中。

公司介绍

我们没有关于这个机场的公司信息。

体会

到Vliegles.nl去找飞行课程,跳伞和其他飞行体验。 浏览页面,了解Macapá Alberto Alcolumbre附近所有可用的活动。 你也可以使用搜索功能来寻找你所在地附近的特定飞行课程、跳伞或其他飞行体验。

跑道

Id 标题 侧风 逆风 侧风 %
8/26 057°-237° 1 kt 1 kt 73 %

逆风成分最大的方向会被突出显示,并用于横风计算。 这并不一定意味着这个方向在使用。

乌云

500 ft FEW 几云
10.000 ft OVC 乌云密布

温度 & 天气

天气 光 雨
温度 26 °C
露点 25 °C
相对湿度 94%
Kp-index 0 (0-9)

白天

日出
06:18 (2:08)
中午
12:22
日落
18:25

小工具

你想在你的网站上有一个关于Macapá Alberto Alcolumbre的当前航空天气(METAR)的小部件吗?

显示HTML代码
报告变更